»·PEaware :: AAL211 KPSP-KLAS

AAL211 :: KPSP-KLAS

FLIGHT INFORMATION

Flight Status: Arrived
Operator:
American Airlines
More flights by this operator :: More flights under this callsign
Pilot: Robert McDonald (1649)
Aircraft: BOEING 737-800
(B738)
More flights by this aircraft type
Origin: KPSP Palm Springs Intl
United States
Destination: KLAS McCarran Intl
United States
More flights between these airports :: More routes between these airports
Route: CATH1 PSP V370 TNP KEPEC4
File this flight plan on PilotEdge
Remarks:
Altitude:
(Current/Filed)
25,000ft
Speed:
(Current/Filed)
450kts
Departed: 12-Jun-17 08:37 PM
Arrived: 12-Jun-17 09:14 PM
Distance/Time
Traveled:
151nm/0:36
Distance/Time
To Go:
Arrived

Flight Plot

Page will automatically refresh every two minutes.

Flight plan parsing failed; only flown route is shown


Map Options




Map Legend


Flown Route
Filed Route
Departure Airport
Arrival Airport
Navaid (VOR, NDB)
Fix

Horizontal Profiles

Position Reports

Time Latitude Longitude Heading Altitude Ground
Speed
12-Jun-17 20:26 33.823828 -116.506542 205 486ft 0kts
12-Jun-17 20:27 33.823828 -116.506542 205 486ft 0kts
12-Jun-17 20:28 33.823828 -116.506542 205 486ft 0kts
12-Jun-17 20:29 33.823828 -116.506542 205 486ft 0kts
12-Jun-17 20:30 33.823828 -116.506542 205 486ft 0kts
12-Jun-17 20:31 33.823828 -116.506542 205 486ft 0kts
12-Jun-17 20:32 33.823828 -116.506542 205 486ft 0kts
12-Jun-17 20:33 33.824305 -116.506364 157 486ft 3kts
12-Jun-17 20:34 33.824328 -116.506374 151 486ft 0kts
12-Jun-17 20:35 33.824327 -116.506373 151 486ft 0kts
12-Jun-17 20:36 33.822541 -116.503252 140 486ft 12kts
12-Jun-17 20:37 33.819739 -116.500707 142 486ft 14kts
12-Jun-17 20:38 33.819128 -116.498318 340 486ft 5kts
12-Jun-17 20:39 33.842519 -116.519575 320 1819ft 188kts
12-Jun-17 20:40 33.893223 -116.545723 24 5472ft 223kts
12-Jun-17 20:41 33.896779 -116.481607 120 8442ft 228kts
12-Jun-17 20:42 33.863254 -116.412783 110 11275ft 249kts
12-Jun-17 20:43 33.879655 -116.336336 61 11506ft 241kts
12-Jun-17 20:44 33.912102 -116.258391 61 12300ft 291kts
12-Jun-17 20:45 33.941624 -116.186646 61 13531ft 362kts
12-Jun-17 20:46 33.990350 -116.067941 60 15973ft 421kts
12-Jun-17 20:47 34.043920 -115.937205 60 18916ft 449kts
12-Jun-17 20:48 34.100643 -115.798438 60 21467ft 474kts
12-Jun-17 20:49 34.188717 -115.683009 33 23589ft 480kts
12-Jun-17 20:50 34.289686 -115.570783 37 24925ft 500kts
12-Jun-17 20:51 34.407067 -115.492985 11 24973ft 477kts
12-Jun-17 20:52 34.532140 -115.439426 12 24963ft 477kts
12-Jun-17 20:53 34.657564 -115.384663 13 24952ft 478kts
12-Jun-17 20:54 34.783737 -115.342487 352 24941ft 458kts
12-Jun-17 20:55 34.903119 -115.376314 334 24935ft 438kts
12-Jun-17 20:56 35.017985 -115.422002 334 24937ft 426kts
12-Jun-17 20:57 35.125663 -115.464010 334 23642ft 395kts
12-Jun-17 20:58 35.228019 -115.504203 335 21225ft 378kts
12-Jun-17 20:59 35.324631 -115.542087 336 18520ft 350kts
12-Jun-17 21:00 35.416081 -115.578063 337 16763ft 347kts
12-Jun-17 21:01 35.508210 -115.614203 337 14988ft 345kts
12-Jun-17 21:02 35.598037 -115.649365 338 13673ft 324kts
12-Jun-17 21:03 35.680655 -115.664535 18 13081ft 303kts
12-Jun-17 21:04 35.742524 -115.594728 41 13020ft 302kts
12-Jun-17 21:05 35.818643 -115.571851 357 13019ft 285kts
12-Jun-17 21:06 35.897584 -115.567714 358 13021ft 284kts
12-Jun-17 21:07 35.973118 -115.544376 42 12833ft 306kts
12-Jun-17 21:08 36.008781 -115.446809 66 11635ft 310kts
12-Jun-17 21:09 36.030283 -115.348836 95 10727ft 287kts
12-Jun-17 21:10 36.022548 -115.255719 95 9766ft 256kts
12-Jun-17 21:11 36.016279 -115.169688 95 7899ft 244kts
12-Jun-17 21:12 36.010712 -115.087359 95 5762ft 235kts
12-Jun-17 21:13 36.038914 -115.034958 6 3830ft 198kts
12-Jun-17 21:14 36.072989 -115.071779 277 2814ft 181kts
12-Jun-17 21:15 36.073760 -115.129035 266 2161ft 159kts
12-Jun-17 21:16 36.075695 -115.146370 351 2124ft 18kts
12-Jun-17 21:17 36.079492 -115.147741 36 2124ft 6kts
12-Jun-17 21:18 36.079802 -115.147125 64 2124ft 0kts
12-Jun-17 21:19 36.079802 -115.147125 64 2124ft 0kts

Navigation Log

Ident Type
Flight plan parsing failed, navigation log unavailable